Nearby METAR Reports

Sorted by Distance from Carson Valley Weather Station - Minden, Nevada

 

KMEV - Minden, Nevada, USA
Distance from station: SSW 3mi, 5km
Updated: Thu, 25-Feb-2021 7:35pm PST
Clear
Clear
 Wind from calm
Wind: Calm
Temperature: 28°F , -2°C
Dew Point: 12°F , -11°C
Humidity: 51%
Barometer: 30.17 inHg , 1021.7 hPa
Clouds: Clear
Visibility: 10 miles , 16 km
2021/02/26 03:35 KMEV 260335Z AUTO 00000KT 10SM CLR M02/M11 A3017 RMK AO2
KCXP - Carson City, Nevada, USA
Distance from station: N 10mi, 16km
Updated: Thu, 25-Feb-2021 7:30pm PST
Clear
Clear
 Wind from calm
Wind: Calm
Temperature: 36°F , 2°C
Dew Point: 10°F , -12°C
Humidity: 35%
Barometer: 30.17 inHg , 1021.7 hPa
Clouds: Clear
Visibility: 10 miles , 16 km
2021/02/26 03:30 KCXP 260330Z AUTO 00000KT 10SM CLR 02/M12 A3017 RMK AO2
 
KTVL - South Lake Tahoe, California, USA
Distance from station: WSW 18mi, 29km
Updated: Thu, 25-Feb-2021 7:53pm PST
Clear
Clear
 Wind from calm
Wind: Calm
Temperature: 28°F , -2°C
Dew Point: 16°F , -9°C
Humidity: 59%
Barometer: 30.19 inHg , 1022.4 hPa
Clouds: Clear
Visibility: 10 miles , 16 km
2021/02/26 03:53 KTVL 260353Z AUTO 00000KT 10SM CLR M02/M09 A3019 RMK AO2 SLP253 T10221089
KTRK - Truckee Tahoe, California, USA
Distance from station: NW 29mi, 46km
Updated: Thu, 25-Feb-2021 7:36pm PST
Clear
Clear
 Wind from SE
Wind: SE 6 mph , 9 km/h
Temperature: 28°F , -2°C
Wind Chill: 21°F , -6°C
Dew Point: 16°F , -9°C
Humidity: 59%
Barometer: 30.20 inHg , 1022.7 hPa
Clouds: Clear
Visibility: 10 miles , 16 km
2021/02/26 03:36 KTRK 260336Z AUTO 14005KT 10SM CLR M02/M09 A3020 RMK AO2
 
KRNO - Reno, Nevada, USA
Distance from station: N 32mi, 51km
Updated: Thu, 25-Feb-2021 7:55pm PST
Clear
Clear
 Wind from calm
Wind: Calm
Temperature: 41°F , 5°C
Dew Point: 12°F , -11°C
Humidity: 31%
Barometer: 30.16 inHg , 1021.3 hPa
Clouds: Clear
Visibility: 10 miles , 16 km
2021/02/26 03:55 KRNO 260355Z 00000KT 10SM CLR 05/M11 A3016 RMK AO2 SLP222 T00501111
KRTS - Reno/Stead, Nevada, USA
Distance from station: NNW 44mi, 71km
Updated: Thu, 25-Feb-2021 7:35pm PST
Clear
Clear
 Wind from N
Wind: N 7 mph , 11 km/h
Temperature: 32°F , 0°C
Wind Chill: 25°F , -4°C
Dew Point: 7°F , -14°C
Humidity: 34%
Barometer: 30.17 inHg , 1021.7 hPa
Clouds: Clear
Visibility: 10 miles , 16 km
2021/02/26 03:35 KRTS 260335Z AUTO 01006KT 10SM CLR 00/M14 A3017 RMK AO2
 
KBAN - Bridgeport(Mcmwt, California, USA
Distance from station: SSE 49mi, 79km
Updated: Thu, 25-Feb-2021 7:52pm PST
Clear
Clear
 Wind from varies
Wind: varies 3 mph , 6 km/h
Temperature: 28°F , -2°C
Dew Point: 10°F , -12°C
Humidity: 47%
Barometer: 30.19 inHg , 1022.4 hPa
Clouds: Clear
Visibility: 10 miles , 16 km
2021/02/26 03:52 KBAN 260352Z AUTO VRB03KT 10SM CLR M02/M12 A3019 RMK AO2 SLP273 T10171117 $
KBLU - Emigrant Gap, California, USA
Distance from station: WNW 55mi, 89km
Updated: Thu, 25-Feb-2021 7:52pm PST
Clear
Clear
 Wind from N
Wind: N 5 mph , 7 km/h
Temperature: 43°F , 6°C
Wind Chill: 40°F , 4°C
Dew Point: 16°F , -9°C
Humidity: 34%
Barometer: 30.21 inHg , 1023 hPa
Clouds: Clear
Visibility: 10 miles , 16 km
2021/02/26 03:52 KBLU 260352Z AUTO 36004KT 10SM CLR 06/M09 A3021 RMK AO2 SLP211 T00611089
 
KPVF - Placerville, California, USA
Distance from station: WSW 60mi, 96km
Updated: Thu, 25-Feb-2021 7:55pm PST
Clear
Clear
 Wind from ENE
Wind: ENE 6 mph , 9 km/h
Temperature: 50°F , 10°C
Wind Chill: 48°F , 9°C
Dew Point: 21°F , -6°C
Humidity: 32%
Barometer: 30.18 inHg , 1022 hPa
Clouds: Clear
Visibility: 10 miles , 16 km
2021/02/26 03:55 KPVF 260355Z AUTO 06005KT 10SM CLR 10/M06 A3018 RMK AO1
KNFL - Fallon Nas, Nevada, USA
Distance from station: ENE 61mi, 97km
Updated: Thu, 25-Feb-2021 6:56pm PST
Clear
Clear
 Wind from SE
Wind: SE 9 mph , 15 km/h
Temperature: 37°F , 3°C
Wind Chill: 30°F , -1°C
Dew Point: 7°F , -14°C
Humidity: 28%
Barometer: 30.16 inHg , 1021.3 hPa
Clouds: Clear
Visibility: 10 miles , 16 km
2021/02/26 02:56 KNFL 260256Z 13008KT 10SM CLR 03/M14 A3016 RMK AO2 SLP176 T00281139 58020
 
KHTH - Hawthorne, Nevada, USA
Distance from station: ESE 68mi, 109km
Updated: Thu, 25-Feb-2021 7:35pm PST
Clear
Clear
 Wind from SE
Wind: SE 8 mph , 13 km/h
Temperature: 34°F , 1°C
Wind Chill: 27°F , -3°C
Dew Point: 3°F , -16°C
Humidity: 27%
Barometer: 30.18 inHg , 1022 hPa
Clouds: Clear
Visibility: 10 miles , 16 km
2021/02/26 03:35 KHTH 260335Z AUTO 13007KT 10SM CLR 01/M16 A3018 RMK A01
KGOO - Grass Valley, California, USA
Distance from station: W 70mi, 112km
Updated: Thu, 25-Feb-2021 7:35pm PST

 Wind from calm
Wind: Calm
Temperature: 45°F , 7°C
Dew Point: 19°F , -7°C
Humidity: 37%
Barometer: 30.17 inHg , 1021.7 hPa
Visibility: 10 miles , 16 km
2021/02/26 03:35 KGOO 260335Z AUTO 00000KT 10SM 07/M07 A3017 RMK A01
 
KAUN - Auburn Muni, California, USA
Distance from station: W 73mi, 118km
Updated: Thu, 25-Feb-2021 7:35pm PST
Clear
Clear
 Wind from calm
Wind: Calm
Temperature: 41°F , 5°C
Dew Point: 28°F , -2°C
Humidity: 61%
Barometer: 30.16 inHg , 1021.3 hPa
Clouds: Clear
Visibility: 10 miles , 16 km
2021/02/26 03:35 KAUN 260335Z AUTO 00000KT 10SM CLR 05/M02 A3016 RMK A01
KO22 - Columbia, California, USA
Distance from station: SSW 79mi, 127km
Updated: Thu, 25-Feb-2021 7:55pm PST
Clear
Clear
 Wind from calm
Wind: Calm
Temperature: 43°F , 6°C
Dew Point: 34°F , 1°C
Humidity: 71%
Barometer: 30.15 inHg , 1021 hPa
Clouds: Clear
Visibility: 10 miles , 16 km
2021/02/26 03:55 KO22 260355Z AUTO 00000KT 10SM CLR 06/01 A3015 RMK A01
 
KLHM - Lincoln, California, USA
Distance from station: W 88mi, 141km
Updated: Thu, 25-Feb-2021 7:35pm PST
Clear
Clear
 Wind from E
Wind: E 3 mph , 6 km/h
Temperature: 41°F , 5°C
Dew Point: 32°F , 0°C
Humidity: 70%
Barometer: 30.15 inHg , 1021 hPa
Clouds: Clear
Visibility: 10 miles , 16 km
2021/02/26 03:35 KLHM 260335Z AUTO 08003KT 10SM CLR 05/00 A3015 RMK AO1
KBAB - Beale Afb/Marysv, California, USA
Distance from station: W 91mi, 147km
Updated: Thu, 25-Feb-2021 6:58pm PST
Clear
Clear
 Wind from E
Wind: E 6 mph , 9 km/h
Temperature: 50°F , 10°C
Wind Chill: 48°F , 9°C
Dew Point: 30°F , -1°C
Humidity: 47%
Barometer: 30.14 inHg , 1020.7 hPa
Clouds: Clear
Visibility: 10 miles , 16 km
2021/02/26 02:58 KBAB 260258Z AUTO 08005KT 10SM CLR 10/M01 A3014 RMK AO2 SLP210 T01001008 56008 $
 
KMHR - Mather Field, California, USA
Distance from station: WSW 91mi, 147km
Updated: Thu, 25-Feb-2021 7:45pm PST
Clear
Clear
 Wind from ENE
Wind: ENE 9 mph , 15 km/h
Temperature: 46°F , 8°C
Wind Chill: 41°F , 5°C
Dew Point: 28°F , -2°C
Humidity: 50%
Barometer: 30.14 inHg , 1020.7 hPa
Clouds: Clear
Visibility: 10 miles , 16 km
2021/02/26 03:45 KMHR 260345Z 07008KT 10SM SKC 08/M02 A3014
KLOL - Lovelock, Nevada, USA
Distance from station: NE 94mi, 151km
Updated: Thu, 25-Feb-2021 7:53pm PST
Clear
Clear
 Wind from NE
Wind: NE 9 mph , 15 km/h
Temperature: 28°F , -2°C
Wind Chill: 19°F , -7°C
Dew Point: 10°F , -12°C
Humidity: 47%
Barometer: 30.17 inHg , 1021.7 hPa
Clouds: Clear
Visibility: 10 miles , 16 km
2021/02/26 03:53 KLOL 260353Z AUTO 04008KT 10SM CLR M02/M12 A3017 RMK AO2 SLP250 T10171117
 
KMCC - Mcclellan Afb, California, USA
Distance from station: WSW 94mi, 151km
Updated: Thu, 25-Feb-2021 7:35pm PST
Clear
Clear
 Wind from ENE
Wind: ENE 8 mph , 13 km/h
Temperature: 54°F , 12°C
Dew Point: 30°F , -1°C
Humidity: 41%
Barometer: 30.15 inHg , 1021 hPa
Clouds: Clear
Visibility: 10 miles , 16 km
2021/02/26 03:35 KMCC 260335Z AUTO 06007KT 10SM CLR 12/M01 A3015 RMK AO2
KMYV - Marysville, California, USA
Distance from station: W 99mi, 159km
Updated: Thu, 25-Feb-2021 7:53pm PST
Clear
Clear
 Wind from calm
Wind: Calm
Temperature: 52°F , 11°C
Dew Point: 27°F , -3°C
Humidity: 38%
Barometer: 30.16 inHg , 1021.3 hPa
Clouds: Clear
Visibility: 10 miles , 16 km
2021/02/26 03:53 KMYV 260353Z AUTO 00000KT 10SM CLR 11/M03 A3016 RMK AO2 SLP215 T01061028
 
KSVE - Susanville Muni, California, USA
Distance from station: NNW 102mi, 164km
Updated: Thu, 25-Feb-2021 7:55pm PST
Clear
Clear
 Wind from WNW
Wind: WNW 8 mph , 13 km/h
Temperature: 36°F , 2°C
Wind Chill: 30°F , -1°C
Dew Point: 19°F , -7°C
Humidity: 52%
Barometer: 30.16 inHg , 1021.3 hPa
Clouds: Clear
Visibility: 10 miles , 16 km
2021/02/26 03:55 KSVE 260355Z AUTO 29007KT 10SM CLR 02/M07 A3016 RMK AO2
KSAC - Sacramento, California, USA
Distance from station: WSW 103mi, 165km
Updated: Thu, 25-Feb-2021 7:53pm PST
Clear
Clear
 Wind from calm
Wind: Calm
Temperature: 48°F , 9°C
Dew Point: 27°F , -3°C
Humidity: 43%
Barometer: 30.15 inHg , 1021 hPa
Clouds: Clear
Visibility: 10 miles , 16 km
2021/02/26 03:53 KSAC 260353Z 00000KT 10SM CLR 09/M03 A3015 RMK AO2 SLP210 T00941028
 
KSMF - Sacramento/Metro, California, USA
Distance from station: WSW 104mi, 167km
Updated: Thu, 25-Feb-2021 7:53pm PST
Clear
Clear
 Wind from SSW
Wind: SSW 5 mph , 7 km/h
Temperature: 48°F , 9°C
Wind Chill: 46°F , 8°C
Dew Point: 30°F , -1°C
Humidity: 50%
Barometer: 30.15 inHg , 1021 hPa
Clouds: Clear
Visibility: 10 miles , 16 km
2021/02/26 03:53 KSMF 260353Z 20004KT 10SM CLR 09/M01 A3015 RMK AO2 SLP208 T00941011
KOVE - Oroville, California, USA
Distance from station: WNW 106mi, 171km
Updated: Thu, 25-Feb-2021 7:53pm PST
Clear
Clear
 Wind from E
Wind: E 5 mph , 7 km/h
Temperature: 54°F , 12°C
Dew Point: 28°F , -2°C
Humidity: 38%
Barometer: 30.16 inHg , 1021.3 hPa
Clouds: Clear
Visibility: 10 miles , 16 km
2021/02/26 03:53 KOVE 260353Z AUTO 08004KT 10SM CLR 12/M02 A3016 RMK AO2 SLP217 T01221022
 
KMMH - Mammoth/June Lak, California, USA
Distance from station: SSE 110mi, 177km
Updated: Thu, 25-Feb-2021 7:35pm PST
Clear
Clear
 Wind from N
Wind: N 7 mph , 11 km/h
Temperature: 30°F , -1°C
Wind Chill: 23°F , -5°C
Dew Point: 16°F , -9°C
Humidity: 55%
Barometer: 30.23 inHg , 1023.7 hPa
Clouds: Clear
Visibility: 10 miles , 16 km
2021/02/26 03:35 KMMH 260335Z AUTO 35006KT 10SM CLR M01/M09 A3023 RMK AO2
KSCK - Stockton, California, USA
Distance from station: SW 114mi, 183km
Updated: Thu, 25-Feb-2021 7:55pm PST
Clear
Clear
 Wind from calm
Wind: Calm
Temperature: 48°F , 9°C
Dew Point: 27°F , -3°C
Humidity: 43%
Barometer: 30.15 inHg , 1021 hPa
Clouds: Clear
Visibility: 10 miles , 16 km
2021/02/26 03:55 KSCK 260355Z AUTO 00000KT 10SM CLR 09/M03 A3015 RMK AO2 SLP209 T00941028
 
KEDU - Davis, California, USA
Distance from station: WSW 116mi, 187km
Updated: Thu, 25-Feb-2021 7:35pm PST
Clear
Clear
 Wind from calm
Wind: Calm
Temperature: 54°F , 12°C
Dew Point: 25°F , -4°C
Humidity: 33%
Barometer: 30.15 inHg , 1021 hPa
Clouds: Clear
Visibility: 10 miles , 16 km
2021/02/26 03:35 KEDU 260335Z AUTO 00000KT 10SM CLR 12/M04 A3015 RMK AO1
KMOD - Modesto, California, USA
Distance from station: SW 119mi, 191km
Updated: Thu, 25-Feb-2021 7:53pm PST
Clear
Clear
 Wind from calm
Wind: Calm
Temperature: 48°F , 9°C
Dew Point: 27°F , -3°C
Humidity: 43%
Barometer: 30.15 inHg , 1021 hPa
Clouds: Clear
Visibility: 10 miles , 16 km
2021/02/26 03:53 KMOD 260353Z 00000KT 10SM CLR 09/M03 A3015 RMK AO2 SLP210 T00941033
 
KMER - Merced/Castle Af, California, USA
Distance from station: SSW 123mi, 198km
Updated: Thu, 25-Feb-2021 7:45pm PST
Clear
Clear
 Wind from calm
Wind: Calm
Temperature: 48°F , 9°C
Dew Point: 28°F , -2°C
Humidity: 46%
Barometer: 30.16 inHg , 1021.3 hPa
Clouds: Clear
Visibility: 10 miles , 16 km
2021/02/26 03:45 KMER 260345Z 00000KT 10SM SKC 09/M02 A3016
KCIC - Chico Municipal, California, USA
Distance from station: WNW 124mi, 199km
Updated: Thu, 25-Feb-2021 6:59pm PST
Clear
Clear
 Wind from E
Wind: E 5 mph , 7 km/h
Temperature: 57°F , 14°C
Dew Point: 28°F , -2°C
Humidity: 33%
Barometer: 30.16 inHg , 1021.3 hPa
Clouds: Clear
Visibility: 10 miles , 16 km
2021/02/26 02:59 KCIC 260259Z 08004KT 10SM SKC 14/M02 A3016
 
KMCE - Merced, California, USA
Distance from station: SSW 128mi, 207km
Updated: Thu, 25-Feb-2021 5:53pm PST
NOT Current
Clear
Clear
 Wind from NNW
Wind: NNW 6 mph , 9 km/h
Temperature: 55°F , 13°C
Dew Point: 28°F , -2°C
Humidity: 36%
Barometer: 30.15 inHg , 1021 hPa
Clouds: Clear
Visibility: 10 miles , 16 km
2021/02/26 01:53 KMCE 260153Z AUTO 34005KT 10SM CLR 13/M02 A3015 RMK AO2 SLP208 T01331017
KVCB - Vacaville, California, USA
Distance from station: WSW 128mi, 207km
Updated: Thu, 25-Feb-2021 7:53pm PST
Clear
Clear
 Wind from calm
Wind: Calm
Temperature: 50°F , 10°C
Dew Point: 30°F , -1°C
Humidity: 47%
Barometer: 30.16 inHg , 1021.3 hPa
Clouds: Clear
Visibility: 10 miles , 16 km
2021/02/26 03:53 KVCB 260353Z AUTO 00000KT 10SM CLR 10/M01 A3016 RMK AO2 SLP211 T01001011
 
KSUU - Travis Afb/Fairf, California, USA
Distance from station: WSW 130mi, 209km
Updated: Thu, 25-Feb-2021 6:58pm PST
Clear
Clear
 Wind from WSW
Wind: WSW 9 mph , 15 km/h
Temperature: 50°F , 10°C
Wind Chill: 46°F , 8°C
Dew Point: 32°F , 0°C
Humidity: 50%
Barometer: 30.16 inHg , 1021.3 hPa
Clouds: Clear
Visibility: 10 miles , 16 km
2021/02/26 02:58 KSUU 260258Z AUTO 24008KT 10SM CLR 10/00 A3016 RMK AO2 SLP220 T00980001 55007 $
KBIH - Bishop, California, USA
Distance from station: SE 137mi, 221km
Updated: Thu, 25-Feb-2021 6:56pm PST
Clear
Clear
 Wind from N
Wind: N 8 mph , 13 km/h
Temperature: 37°F , 3°C
Wind Chill: 31°F , -1°C
Dew Point: -0°F , -18°C
Humidity: 20%
Barometer: 30.14 inHg , 1020.7 hPa
Clouds: Clear
Visibility: 10 miles , 16 km
2021/02/26 02:56 KBIH 260256Z AUTO 35007KT 10SM CLR 03/M18 A3014 RMK AO2 SLP218 T00331178 53001
 
KMAE - Madera, California, USA
Distance from station: S 144mi, 231km
Updated: Thu, 25-Feb-2021 7:53pm PST
Clear
Clear
 Wind from W
Wind: W 5 mph , 7 km/h
Temperature: 46°F , 8°C
Wind Chill: 44°F , 7°C
Dew Point: 37°F , 3°C
Humidity: 71%
Barometer: 30.17 inHg , 1021.7 hPa
Clouds: Clear
Visibility: 10 miles , 16 km
2021/02/26 03:53 KMAE 260353Z AUTO 28004KT 10SM CLR 08/03 A3017 RMK AO2 SLP219 T00830033
KCCR - Concord, California, USA
Distance from station: WSW 145mi, 233km
Updated: Thu, 25-Feb-2021 7:53pm PST
Clear
Clear
 Wind from S
Wind: S 5 mph , 7 km/h
Temperature: 57°F , 14°C
Dew Point: 28°F , -2°C
Humidity: 33%
Barometer: 30.17 inHg , 1021.7 hPa
Clouds: Clear
Visibility: 10 miles , 16 km
2021/02/26 03:53 KCCR 260353Z 18004KT 10SM CLR 14/M02 A3017 RMK AO2 SLP201 T01391022
 
KLVK - Livermore, California, USA
Distance from station: SW 146mi, 236km
Updated: Thu, 25-Feb-2021 7:53pm PST
Clear
Clear
 Wind from W
Wind: W 3 mph , 6 km/h
Temperature: 52°F , 11°C
Dew Point: 28°F , -2°C
Humidity: 41%
Barometer: 30.17 inHg , 1021.7 hPa
Clouds: Clear
Visibility: 10 miles , 16 km
2021/02/26 03:53 KLVK 260353Z 28003KT 10SM CLR 11/M02 A3017 RMK AO2 SLP217 T01111017
KAPC - Napa, California, USA
Distance from station: WSW 150mi, 241km
Updated: Thu, 25-Feb-2021 7:54pm PST
Clear
Clear
 Wind from SSW
Wind: SSW 5 mph , 7 km/h
Temperature: 50°F , 10°C
Wind Chill: 48°F , 9°C
Dew Point: 36°F , 2°C
Humidity: 58%
Barometer: 30.17 inHg , 1021.7 hPa
Clouds: Clear
Visibility: 10 miles , 16 km
2021/02/26 03:54 KAPC 260354Z AUTO 20004KT 10SM CLR 10/02 A3017 RMK AO2 SLP207 T01000022
 
KRBL - Red Bluff, California, USA
Distance from station: WNW 155mi, 249km
Updated: Thu, 25-Feb-2021 7:54pm PST
Clear
Clear
 Wind from WNW
Wind: WNW 14 mph , 22 km/h
Temperature: 63°F , 17°C
Dew Point: 27°F , -3°C
Humidity: 25%
Barometer: 30.14 inHg , 1020.7 hPa
Clouds: Clear
Visibility: 10 miles , 16 km
2021/02/26 03:54 KRBL 260354Z AUTO 30012KT 10SM CLR 17/M03 A3014 RMK AO2 SLP204 T01721033 $
KFAT - Fresno, California, USA
Distance from station: S 156mi, 251km
Updated: Thu, 25-Feb-2021 7:53pm PST
Few Clouds
Few Clouds
 Wind from NNW
Wind: NNW 3 mph , 6 km/h
Temperature: 57°F , 14°C
Dew Point: 34°F , 1°C
Humidity: 41%
Barometer: 30.16 inHg , 1021.3 hPa
Clouds: Few Clouds
Visibility: 10 miles , 16 km
Cloud details: Few Clouds 20000 ft
2021/02/26 03:53 KFAT 260353Z 34003KT 10SM FEW200 14/01 A3016 RMK AO2 SLP214 T01390011
 
KTPH - Tonopah, Nevada, USA
Distance from station: ESE 158mi, 254km
Updated: Thu, 25-Feb-2021 6:56pm PST
Clear
Clear
 Wind from WNW
Wind: WNW 14 mph , 22 km/h
Temperature: 34°F , 1°C
Wind Chill: 25°F , -4°C
Dew Point: -8°F , -22°C
Humidity: 16%
Barometer: 30.15 inHg , 1021 hPa
Clouds: Clear
Visibility: 10 miles , 16 km
2021/02/26 02:56 KTPH 260256Z AUTO 29012KT 10SM CLR 01/M22 A3015 RMK AO2 SLP239 T00111217 57003
KFCH - Fresno Chandler, California, USA
Distance from station: S 161mi, 258km
Updated: Thu, 14-May-2020 3:35am PDT
NOT Current
Few Clouds
Few Clouds
 Wind from NW
Wind: NW 13 mph , 20 km/h
Temperature: 59°F , 15°C
Dew Point: 48°F , 9°C
Humidity: 68%
Barometer: 30.06 inHg , 1017.9 hPa
Clouds: Few Clouds
Visibility: 10 miles , 16 km
Cloud details: Few Clouds 2900 ft
2020/05/14 10:35 KFCH 141035Z AUTO 32011KT 10SM FEW029 15/09 A3006 RMK A01
 
KHWD - Hayward, California, USA
Distance from station: SW 161mi, 259km
Updated: Thu, 25-Feb-2021 7:54pm PST
Clear
Clear
 Wind from WSW
Wind: WSW 3 mph , 6 km/h
Temperature: 52°F , 11°C
Dew Point: 43°F , 6°C
Humidity: 72%
Barometer: 30.19 inHg , 1022.4 hPa
Clouds: Clear
Visibility: 10 miles , 16 km
2021/02/26 03:54 KHWD 260354Z 24003KT 10SM CLR 11/06 A3019 RMK AO2 SLP232 T01110056
KOAK - Oakland, California, USA
Distance from station: SW 164mi, 264km
Updated: Thu, 25-Feb-2021 7:53pm PST
Clear
Clear
 Wind from W
Wind: W 12 mph , 19 km/h
Temperature: 55°F , 13°C
Dew Point: 46°F , 8°C
Humidity: 72%
Barometer: 30.21 inHg , 1023 hPa
Clouds: Clear
Visibility: 10 miles , 16 km
2021/02/26 03:53 KOAK 260353Z 28010KT 10SM CLR 13/08 A3021 RMK AO2 SLP228 T01330078
 
KWMC - Winnemucca, Nevada, USA
Distance from station: NE 164mi, 264km
Updated: Thu, 25-Feb-2021 6:56pm PST
Clear
Clear
 Wind from S
Wind: S 13 mph , 20 km/h
Temperature: 34°F , 1°C
Wind Chill: 25°F , -4°C
Dew Point: 14°F , -10°C
Humidity: 44%
Barometer: 30.13 inHg , 1020.3 hPa
Clouds: Clear
Visibility: 10 miles , 16 km
2021/02/26 02:56 KWMC 260256Z AUTO 17011KT 10SM CLR 01/M10 A3013 RMK AO2 SLP225 T00111100 55011
KDVO - Novato/Gnoss Fld, California, USA
Distance from station: WSW 165mi, 265km
Updated: Thu, 25-Feb-2021 7:35pm PST
Clear
Clear
 Wind from calm
Wind: Calm
Temperature: 46°F , 8°C
Dew Point: 36°F , 2°C
Humidity: 66%
Barometer: 30.18 inHg , 1022 hPa
Clouds: Clear
Visibility: 10 miles , 16 km
2021/02/26 03:35 KDVO 260335Z AUTO 00000KT 10SM CLR 08/02 A3018 RMK AO2
 
KO69 - Petaluma, California, USA
Distance from station: WSW 165mi, 265km
Updated: Thu, 25-Feb-2021 7:35pm PST
Few Clouds
Few Clouds
 Wind from N
Wind: N 3 mph , 6 km/h
Temperature: 48°F , 9°C
Dew Point: 41°F , 5°C
Humidity: 76%
Barometer: 30.19 inHg , 1022.4 hPa
Clouds: Few Clouds
Visibility: 10 miles , 16 km
Cloud details: Few Clouds 2400 ft
2021/02/26 03:35 KO69 260335Z AUTO 35003KT 10SM FEW024 09/05 A3019 RMK A01
KRHV - San Jose/Reid, California, USA
Distance from station: SW 165mi, 265km
Updated: Thu, 25-Feb-2021 7:47pm PST
Clear
Clear
 Wind from NW
Wind: NW 7 mph , 11 km/h
Temperature: 54°F , 12°C
Dew Point: 30°F , -1°C
Humidity: 41%
Barometer: 30.19 inHg , 1022.4 hPa
Clouds: Clear
Visibility: 10 miles , 16 km
2021/02/26 03:47 KRHV 260347Z 31006KT 10SM SKC 12/M01 A3019
 
KSJC - San Jose, California, USA
Distance from station: SW 166mi, 267km
Updated: Thu, 25-Feb-2021 7:53pm PST
Clear
Clear
 Wind from NW
Wind: NW 6 mph , 9 km/h
Temperature: 54°F , 12°C
Dew Point: 34°F , 1°C
Humidity: 47%
Barometer: 30.19 inHg , 1022.4 hPa
Clouds: Clear
Visibility: 10 miles , 16 km
2021/02/26 03:53 KSJC 260353Z 32005KT 10SM CLR 12/01 A3019 RMK AO2 SLP223 T01170011 $
KE16 - San Martin, California, USA
Distance from station: SW 169mi, 273km
Updated: Thu, 25-Feb-2021 7:35pm PST
Clear
Clear
 Wind from NW
Wind: NW 6 mph , 9 km/h
Temperature: 55°F , 13°C
Dew Point: 23°F , -5°C
Humidity: 28%
Barometer: 30.19 inHg , 1022.4 hPa
Clouds: Clear
Visibility: 10 miles , 16 km
2021/02/26 03:35 KE16 260335Z AUTO 32005KT 10SM CLR 13/M05 A3019 RMK AO2 PWINO PNO
 
KPAO - Palo Alto, California, USA
Distance from station: SW 169mi, 273km
Updated: Thu, 25-Feb-2021 7:47pm PST
Clear
Clear
 Wind from NNW
Wind: NNW 6 mph , 9 km/h
Temperature: 50°F , 10°C
Wind Chill: 48°F , 9°C
Dew Point: 39°F , 4°C
Humidity: 67%
Barometer: 30.20 inHg , 1022.7 hPa
Clouds: Clear
Visibility: 10 miles , 16 km
2021/02/26 03:47 KPAO 260347Z 34005KT 10SM SKC 10/04 A3020
KNUQ - Moffett Nas/Mtn, California, USA
Distance from station: SW 170mi, 273km
Updated: Thu, 25-Feb-2021 7:35pm PST
Clear
Clear
 Wind from NNW
Wind: NNW 6 mph , 9 km/h
Temperature: 54°F , 12°C
Dew Point: 43°F , 6°C
Humidity: 67%
Barometer: 30.19 inHg , 1022.4 hPa
Clouds: Clear
Visibility: 10 miles , 16 km
2021/02/26 03:35 KNUQ 260335Z AUTO 34005KT 10SM CLR 12/06 A3019 RMK AO2
 
KRDD - Redding, California, USA
Distance from station: NW 171mi, 275km
Updated: Thu, 25-Feb-2021 7:53pm PST
Clear
Clear
 Wind from NNW
Wind: NNW 5 mph , 7 km/h
Temperature: 61°F , 16°C
Dew Point: 28°F , -2°C
Humidity: 29%
Barometer: 30.14 inHg , 1020.7 hPa
Clouds: Clear
Visibility: 10 miles , 16 km
2021/02/26 03:53 KRDD 260353Z 34004KT 10SM CLR 16/M02 A3014 RMK AO2 SLP204 T01561022
KSTS - Santa Rosa, California, USA
Distance from station: WSW 171mi, 275km
Updated: Thu, 25-Feb-2021 7:53pm PST
Clear
Clear
 Wind from calm
Wind: Calm
Temperature: 48°F , 9°C
Dew Point: 34°F , 1°C
Humidity: 58%
Barometer: 30.19 inHg , 1022.4 hPa
Clouds: Clear
Visibility: 10 miles , 16 km
2021/02/26 03:53 KSTS 260353Z AUTO 00000KT 10SM CLR 09/01 A3019 RMK AO2 SLP217 T00940011
 
KSQL - San Carlos Airpo, California, USA
Distance from station: SW 173mi, 278km
Updated: Thu, 25-Feb-2021 7:47pm PST
Partly cloudy
Partly cloudy
 Wind from W
Wind: W 6 mph , 9 km/h
Temperature: 55°F , 13°C
Dew Point: 27°F , -3°C
Humidity: 33%
Barometer: 30.19 inHg , 1022.4 hPa
Clouds: Partly cloudy
Visibility: 10 miles , 16 km
Cloud details: Partly cloudy 20000 ft
2021/02/26 03:47 KSQL 260347Z 27005KT 10SM SCT200 13/M03 A3019
KCVH - Hollister Muni, California, USA
Distance from station: SSW 174mi, 280km
Updated: Thu, 25-Feb-2021 7:55pm PST
Clear
Clear
 Wind from NNE
Wind: NNE 3 mph , 6 km/h
Temperature: 52°F , 11°C
Dew Point: 27°F , -3°C
Humidity: 38%
Barometer: 30.18 inHg , 1022 hPa
Clouds: Clear
Visibility: 10 miles , 16 km
2021/02/26 03:55 KCVH 260355Z AUTO 02003KT 10SM CLR 11/M03 A3018 RMK A01
 
KSFO - San Francisco, California, USA
Distance from station: SW 174mi, 280km
Updated: Thu, 25-Feb-2021 6:56pm PST
Clear
Clear
 Wind from WNW
Wind: WNW 15 mph , 24 km/h
Temperature: 54°F , 12°C
Dew Point: 45°F , 7°C
Humidity: 72%
Barometer: 30.19 inHg , 1022.4 hPa
Clouds: Clear
Visibility: 10 miles , 16 km
2021/02/26 02:56 KSFO 260256Z 29013KT 10SM CLR 12/07 A3019 RMK AO2 SLP224 T01220072 55002
KAAT - Alturas, California, USA
Distance from station: NNW 175mi, 281km
Updated: Thu, 25-Feb-2021 7:55pm PST
Clear
Clear
 Wind from E
Wind: E 5 mph , 7 km/h
Temperature: 36°F , 2°C
Wind Chill: 32°F , 0°C
Dew Point: 25°F , -4°C
Humidity: 65%
Barometer: 30.21 inHg , 1023 hPa
Clouds: Clear
Visibility: 10 miles , 16 km
2021/02/26 03:55 KAAT 260355Z AUTO 09004KT 10SM CLR 02/M04 A3021 RMK AO2 SLP253 T00221044
 
KBAM - Battle Mtn (vor), Nevada, USA
Distance from station: NE 182mi, 294km
Updated: Thu, 25-Feb-2021 7:35pm PST
Clear
Clear
 Wind from W
Wind: W 16 mph , 26 km/h
Temperature: 36°F , 2°C
Wind Chill: 26°F , -3°C
Dew Point: 14°F , -10°C
Humidity: 41%
Barometer: 30.13 inHg , 1020.3 hPa
Clouds: Clear
Visibility: 10 miles , 16 km
2021/02/26 03:35 KBAM 260335Z AUTO 26014KT 10SM CLR 02/M10 A3013 RMK AO1
KHAF - Half Moon Bay, California, USA
Distance from station: SW 184mi, 296km
Updated: Thu, 25-Feb-2021 7:55pm PST
Haze, Partly cloudy
Haze, Partly cloudy
 Wind from NNW
Wind: NNW 8 mph , 13 km/h
Temperature: 50°F , 10°C
Wind Chill: 47°F , 8°C
Dew Point: 46°F , 8°C
Humidity: 88%
Barometer: 30.21 inHg , 1023 hPa
Summary: Haze
Clouds: Partly cloudy
Visibility: 5 miles , 8 km
Cloud details: Partly cloudy 1400 ft
Partly cloudy 2200 ft
2021/02/26 03:55 KHAF 260355Z AUTO 34007KT 5SM HZ SCT014 SCT022 10/08 A3021 RMK AO2
 
KWVI - Watsonville, California, USA
Distance from station: SW 184mi, 296km
Updated: Thu, 25-Feb-2021 7:53pm PST
Clear
Clear
 Wind from WNW
Wind: WNW 3 mph , 6 km/h
Temperature: 50°F , 10°C
Dew Point: 43°F , 6°C
Humidity: 76%
Barometer: 30.18 inHg , 1022 hPa
Clouds: Clear
Visibility: 10 miles , 16 km
2021/02/26 03:53 KWVI 260353Z AUTO 29003KT 10SM CLR 10/06 A3018 RMK AO2 SLP221 T01000056
KUKI - Ukiah, California, USA
Distance from station: W 187mi, 300km
Updated: Thu, 25-Feb-2021 6:56pm PST
Clear
Clear
 Wind from NNE
Wind: NNE 10 mph , 17 km/h, Gust: 18 mph , 30 km/h
Temperature: 57°F , 14°C
Dew Point: 37°F , 3°C
Humidity: 48%
Barometer: 30.22 inHg , 1023.4 hPa
Clouds: Clear
Visibility: 10 miles , 16 km
2021/02/26 02:56 KUKI 260256Z AUTO 03009G16KT 10SM CLR 14/03 A3022 RMK AO2 SLP231 T01390028 53008
 
KHJO - Hanford, California, USA
Distance from station: S 188mi, 303km
Updated: Thu, 25-Feb-2021 7:53pm PST
Clear
Clear
 Wind from W
Wind: W 3 mph , 6 km/h
Temperature: 48°F , 9°C
Dew Point: 37°F , 3°C
Humidity: 66%
Barometer: 30.17 inHg , 1021.7 hPa
Clouds: Clear
Visibility: 10 miles , 16 km
2021/02/26 03:53 KHJO 260353Z AUTO 28003KT 10SM CLR 09/03 A3017 RMK AO2 SLP219 T00890033
KNLC - Lemoore Nas/Reev, California, USA
Distance from station: S 188mi, 303km
Updated: Thu, 25-Feb-2021 6:56pm PST
Clear
Clear
 Wind from NW
Wind: NW 9 mph , 15 km/h
Temperature: 55°F , 13°C
Dew Point: 28°F , -2°C
Humidity: 36%
Barometer: 30.16 inHg , 1021.3 hPa
Clouds: Clear
Visibility: 10 miles , 16 km
2021/02/26 02:56 KNLC 260256Z 32008KT 10SM CLR 13/M02 A3016 RMK AO2 SLP215 RH/41 T01281017 55002
 
KVIS - Visalia Muni, California, USA
Distance from station: S 189mi, 304km
Updated: Thu, 25-Feb-2021 7:56pm PST
Clear
Clear
 Wind from calm
Wind: Calm
Temperature: 52°F , 11°C
Dew Point: 30°F , -1°C
Humidity: 44%
Barometer: 30.17 inHg , 1021.7 hPa
Clouds: Clear
Visibility: 10 miles , 16 km
2021/02/26 03:56 KVIS 260356Z AUTO 00000KT 10SM CLR 11/M01 A3017 RMK AO2 SLP224 T01061011
KSNS - Salinas, California, USA
Distance from station: SSW 193mi, 311km
Updated: Thu, 25-Feb-2021 7:53pm PST
Clear
Clear
 Wind from N
Wind: N 3 mph , 6 km/h
Temperature: 52°F , 11°C
Dew Point: 43°F , 6°C
Humidity: 72%
Barometer: 30.18 inHg , 1022 hPa
Clouds: Clear
Visibility: 10 miles , 16 km
2021/02/26 03:53 KSNS 260353Z AUTO 35003KT 10SM CLR 11/06 A3018 RMK AO2 SLP230 T01110056
 
K05U - Eureka, Nevada, USA
Distance from station: ENE 203mi, 326km
Updated: Thu, 25-Feb-2021 7:35pm PST

 Wind from calm
Wind: Calm
Temperature: 25°F , -4°C
Dew Point: 10°F , -12°C
Humidity: 54%
Barometer: 30.11 inHg , 1019.6 hPa
Visibility: 10 miles , 16 km
2021/02/26 03:35 K05U 260335Z AUTO 00000KT 10SM M04/M12 A3011 RMK A01
KP68 - Eureka, Nevada, USA
Distance from station: ENE 203mi, 326km
Updated: Thu, 25-Feb-2021 7:53pm PST

 Wind from varies
Wind: varies 7 mph , 11 km/h
Temperature: 30°F , -1°C
Wind Chill: 23°F , -5°C
Dew Point: 9°F , -13°C
Humidity: 40%
Barometer: 30.09 inHg , 1019 hPa
2021/02/26 03:53 KP68 260353Z AUTO VRB06KT M01/M13 A3009 RMK AO1 SLP209 T10061133
 
KMRY - Monterey, California, USA
Distance from station: SW 206mi, 331km
Updated: Thu, 25-Feb-2021 7:54pm PST
Clear
Clear
 Wind from SW
Wind: SW 6 mph , 9 km/h
Temperature: 52°F , 11°C
Dew Point: 39°F , 4°C
Humidity: 62%
Barometer: 30.20 inHg , 1022.7 hPa
Clouds: Clear
Visibility: 10 miles , 16 km
2021/02/26 03:54 KMRY 260354Z AUTO 23005KT 10SM CLR 11/04 A3020 RMK AO2 SLP237 T01110044
KO54 - Weaverville, California, USA
Distance from station: NW 207mi, 332km
Updated: Wed, 12-Aug-2020 11:15am PDT
NOT Current
Clear
Clear
 Wind from S
Wind: S 3 mph , 6 km/h
Temperature: 77°F , 25°C
Dew Point: 41°F , 5°C
Humidity: 28%
Barometer: 30.01 inHg , 1016.3 hPa
Clouds: Clear
Visibility: 10 miles , 16 km
2020/08/12 18:15 KO54 121815Z AUTO 17003KT 10SM CLR 25/05 A3001 RMK AO1
 
KO86 - Trinity Center, California, USA
Distance from station: NW 207mi, 333km
Updated: Fri, 25-Sep-2020 1:50am PDT
NOT Current
Mostly cloudy
Mostly cloudy
 Wind from W
Wind: W 5 mph , 7 km/h
Temperature: 50°F , 10°C
Wind Chill: 48°F , 9°C
Dew Point: 41°F , 5°C
Humidity: 71%
Barometer: 30.06 inHg , 1017.9 hPa
Clouds: Mostly cloudy
Visibility: 10 miles , 16 km
Cloud details: Mostly cloudy 4000 ft
2020/09/25 08:50 KO86 250850Z AUTO 27004KT 10SM BKN040 10/05 A3006 RMK AO1
KMHS - Mount Shasta, California, USA
Distance from station: NW 209mi, 336km
Updated: Thu, 25-Feb-2021 7:56pm PST
Clear
Clear
 Wind from varies
Wind: varies 6 mph , 9 km/h
Temperature: 43°F , 6°C
Wind Chill: 39°F , 4°C
Dew Point: 25°F , -4°C
Humidity: 49%
Barometer: 30.22 inHg , 1023.4 hPa
Clouds: Clear
Visibility: 10 miles , 16 km
2021/02/26 03:56 KMHS 260356Z AUTO VRB05KT 10SM CLR 06/M04 A3022 RMK AO2 SLP263 T00611039
 
KPTV - Porterville, California, USA
Distance from station: S 212mi, 341km
Updated: Thu, 25-Feb-2021 7:56pm PST
Clear
Clear
 Wind from ESE
Wind: ESE 7 mph , 11 km/h
Temperature: 46°F , 8°C
Wind Chill: 42°F , 6°C
Dew Point: 34°F , 1°C
Humidity: 62%
Barometer: 30.17 inHg , 1021.7 hPa
Clouds: Clear
Visibility: 10 miles , 16 km
2021/02/26 03:56 KPTV 260356Z AUTO 11006KT 10SM CLR 08/01 A3017 RMK AO2 SLP219 T00830011
KLKV - Lakeview, Oregon, USA
Distance from station: N 219mi, 353km
Updated: Thu, 25-Feb-2021 7:53pm PST
Mostly cloudy
Mostly cloudy
 Wind from W
Wind: W 10 mph , 17 km/h
Temperature: 34°F , 1°C
Wind Chill: 26°F , -3°C
Dew Point: 21°F , -6°C
Humidity: 60%
Barometer: 30.18 inHg , 1022 hPa
Clouds: Mostly cloudy
Visibility: 10 miles , 16 km
Cloud details: Mostly cloudy 4200 ft
2021/02/26 03:53 KLKV 260353Z AUTO 28009KT 10SM BKN042 01/M06 A3018 RMK AO2 SLP257 T00061056 FZRANO
 
KSIY - Montague/Siskiyo, California, USA
Distance from station: NW 237mi, 382km
Updated: Thu, 25-Feb-2021 7:53pm PST
Clear
Clear
 Wind from N
Wind: N 21 mph , 33 km/h
Temperature: 43°F , 6°C
Wind Chill: 34°F , 1°C
Dew Point: 28°F , -2°C
Humidity: 57%
Barometer: 30.27 inHg , 1025.1 hPa
Clouds: Clear
Visibility: 10 miles , 16 km
2021/02/26 03:53 KSIY 260353Z AUTO 01018KT 10SM CLR 06/M02 A3027 RMK AO2 SLP275 T00611017
KPRB - Paso Robles, California, USA
Distance from station: SSW 238mi, 383km
Updated: Thu, 25-Feb-2021 7:53pm PST
Clear
Clear
 Wind from ESE
Wind: ESE 7 mph , 11 km/h
Temperature: 54°F , 12°C
Dew Point: 25°F , -4°C
Humidity: 33%
Barometer: 30.15 inHg , 1021 hPa
Clouds: Clear
Visibility: 10 miles , 16 km
2021/02/26 03:53 KPRB 260353Z AUTO 12006KT 10SM CLR 12/M04 A3015 RMK AO2 SLP210 T01171039
 
KLMT - Klamath Falls, Oregon, USA
Distance from station: NNW 239mi, 385km
Updated: Thu, 25-Feb-2021 7:53pm PST
Clear
Clear
 Wind from W
Wind: W 24 mph , 39 km/h, Gust: 29 mph , 46 km/h
Temperature: 36°F , 2°C
Wind Chill: 24°F , -4°C
Dew Point: 25°F , -4°C
Humidity: 65%
Barometer: 30.17 inHg , 1021.7 hPa
Clouds: Clear
Visibility: 10 miles , 16 km
2021/02/26 03:53 KLMT 260353Z 26021G25KT 10SM CLR 02/M04 A3017 RMK AO2 SLP235 LAST T00221039 $
KEKO - Elko, Nevada, USA
Distance from station: ENE 242mi, 390km
Updated: Thu, 25-Feb-2021 6:56pm PST
Clear
Clear
 Wind from calm
Wind: Calm
Temperature: 28°F , -2°C
Dew Point: 10°F , -12°C
Humidity: 47%
Barometer: 30.09 inHg , 1019 hPa
Clouds: Clear
Visibility: 10 miles , 16 km
2021/02/26 02:56 KEKO 260256Z AUTO 00000KT 10SM CLR M02/M12 A3009 RMK AO2 SLP233 T10221117 56013
 
KBFL - Bakersfield, California, USA
Distance from station: S 252mi, 405km
Updated: Thu, 25-Feb-2021 7:54pm PST
Clear
Clear
 Wind from NNE
Wind: NNE 7 mph , 11 km/h
Temperature: 54°F , 12°C
Dew Point: 25°F , -4°C
Humidity: 33%
Barometer: 30.16 inHg , 1021.3 hPa
Clouds: Clear
Visibility: 10 miles , 16 km
2021/02/26 03:54 KBFL 260354Z 03006KT 10SM CLR 12/M04 A3016 RMK AO2 SLP213 T01221039
KFOT - Fortuna, California, USA
Distance from station: WNW 256mi, 413km
Updated: Thu, 25-Feb-2021 7:35pm PST
Mostly cloudy
Mostly cloudy
 Wind from NNW
Wind: NNW 10 mph , 17 km/h
Temperature: 45°F , 7°C
Wind Chill: 40°F , 4°C
Dew Point: 41°F , 5°C
Humidity: 87%
Barometer: 30.43 inHg , 1030.5 hPa
Clouds: Mostly cloudy
Visibility: 10 miles , 16 km
Cloud details: Partly cloudy 2000 ft
Mostly cloudy 2600 ft
Mostly cloudy 3400 ft
2021/02/26 03:35 KFOT 260335Z AUTO 33009KT 10SM SCT020 BKN026 BKN034 07/05 A3043 RMK AO1
 
KNID - China Lake (naf), California, USA
Distance from station: SSE 259mi, 417km
Updated: Thu, 25-Feb-2021 7:56pm PST
Clear
Clear
 Wind from varies
Wind: varies 5 mph , 7 km/h
Temperature: 41°F , 5°C
Wind Chill: 38°F , 3°C
Dew Point: -11°F , -24°C
Humidity: 10%
Barometer: 30.14 inHg , 1020.7 hPa
Clouds: Clear
Visibility: 10 miles , 16 km
2021/02/26 03:56 KNID 260356Z VRB04KT 10SM CLR 05/M24 A3014 RMK AO2 SLP212 T00501244 PNO $
KDRA - Desert R/Mercury, Nevada, USA
Distance from station: SE 262mi, 421km
Updated: Thu, 25-Feb-2021 7:53pm PST
Clear
Clear
 Wind from calm
Wind: Calm
Temperature: 43°F , 6°C
Dew Point: -6°F , -21°C
Humidity: 12%
Barometer: 30.12 inHg , 1020 hPa
Clouds: Clear
Visibility: 10 miles , 16 km
2021/02/26 03:53 KDRA 260353Z AUTO 00000KT 10SM CLR 06/M21 A3012 RMK AO2 SLP194 T00611206
 
KELY - Ely, Nevada, USA
Distance from station: E 262mi, 421km
Updated: Thu, 25-Feb-2021 7:53pm PST
Clear
Clear
 Wind from calm
Wind: Calm
Temperature: 18°F , -8°C
Dew Point: 10°F , -12°C
Humidity: 73%
Barometer: 30.08 inHg , 1018.6 hPa
Clouds: Clear
Visibility: 10 miles , 16 km
2021/02/26 03:53 KELY 260353Z AUTO 00000KT 10SM CLR M08/M12 A3008 RMK AO2 SLP235 T10831122 $
KREO - Rome, Oregon, USA
Distance from station: NNE 263mi, 424km
Updated: Thu, 25-Feb-2021 7:52pm PST

 Wind from NNW
Wind: NNW 10 mph , 17 km/h
Temperature: 36°F , 2°C
Wind Chill: 29°F , -2°C
Dew Point: 25°F , -4°C
Humidity: 65%
Barometer: 30.05 inHg , 1017.6 hPa
2021/02/26 03:52 KREO 260352Z AUTO 34009KT 02/M04 A3005 RMK AO1 PK WND 30027/0254 WSHFT 0254 SLP200 T00171044
 
KACV - Arcata/Eureka, California, USA
Distance from station: WNW 268mi, 431km
Updated: Thu, 25-Feb-2021 7:53pm PST
Partly cloudy
Partly cloudy
 Wind from N
Wind: N 10 mph , 17 km/h
Temperature: 45°F , 7°C
Wind Chill: 40°F , 4°C
Dew Point: 39°F , 4°C
Humidity: 81%
Barometer: 30.43 inHg , 1030.5 hPa
Clouds: Partly cloudy
Visibility: 10 miles , 16 km
Cloud details: Partly cloudy 2600 ft
2021/02/26 03:53 KACV 260353Z AUTO 01009KT 10SM SCT026 07/04 A3043 RMK AO2 SLP312 T00720044
KSBP - San Luis Obispo, California, USA
Distance from station: S 268mi, 431km
Updated: Thu, 25-Feb-2021 6:56pm PST
Clear
Clear
 Wind from calm
Wind: Calm
Temperature: 55°F , 13°C
Dew Point: 34°F , 1°C
Humidity: 44%
Barometer: 30.11 inHg , 1019.6 hPa
Clouds: Clear
Visibility: 10 miles , 16 km
2021/02/26 02:56 KSBP 260256Z 00000KT 10SM CLR 13/01 A3011 RMK AO2 SLP197 T01280006 53011
 
KINS - Indian Springs, Nevada, USA
Distance from station: SE 279mi, 449km
Updated: Thu, 25-Feb-2021 6:58pm PST
Partly cloudy
Partly cloudy
 Wind from SE
Wind: SE 6 mph , 9 km/h
Temperature: 46°F , 8°C
Wind Chill: 43°F , 6°C
Dew Point: -8°F , -22°C
Humidity: 10%
Barometer: 30.09 inHg , 1019 hPa
Clouds: Partly cloudy
Visibility: 10 miles , 16 km
Cloud details: Partly cloudy 20000 ft
2021/02/26 02:58 KINS 260258Z AUTO 14005KT 10SM SCT200 08/M22 A3009 RMK AO2 SLP188 T00771221 55017 $
KTSP - Tehachapi, California, USA
Distance from station: SSE 279mi, 449km
Updated: Thu, 25-Feb-2021 7:55pm PST
Clear
Clear
 Wind from WNW
Wind: WNW 8 mph , 13 km/h
Temperature: 37°F , 3°C
Wind Chill: 31°F , -1°C
Dew Point: 14°F , -10°C
Humidity: 38%
Barometer: 30.16 inHg , 1021.3 hPa
Clouds: Clear
Visibility: 10 miles , 16 km
2021/02/26 03:55 KTSP 260355Z AUTO 29007KT 10SM CLR 03/M10 A3016 RMK AO2
 
KMFR - Medford, Oregon, USA
Distance from station: NW 284mi, 457km
Updated: Thu, 25-Feb-2021 7:53pm PST
Partly cloudy
Partly cloudy
 Wind from WNW
Wind: WNW 7 mph , 11 km/h
Temperature: 46°F , 8°C
Wind Chill: 42°F , 6°C
Dew Point: 28°F , -2°C
Humidity: 50%
Barometer: 30.37 inHg , 1028.4 hPa
Clouds: Partly cloudy
Visibility: 10 miles , 16 km
Cloud details: Partly cloudy 6000 ft
2021/02/26 03:53 KMFR 260353Z 30006KT 10SM SCT060 08/M02 A3037 RMK AO2 SLP291 T00781017
KMHV - Mojave, California, USA
Distance from station: SSE 288mi, 463km
Updated: Thu, 25-Feb-2021 7:20pm PST
Partly cloudy
Partly cloudy
 Wind from WNW
Wind: WNW 7 mph , 11 km/h
Temperature: 43°F , 6°C
Wind Chill: 39°F , 4°C
Dew Point: -0°F , -18°C
Humidity: 16%
Barometer: 30.13 inHg , 1020.3 hPa
Clouds: Partly cloudy
Visibility: 10 miles , 16 km
Cloud details: Partly cloudy 4200 ft
Partly cloudy 4700 ft
2021/02/26 03:20 KMHV 260320Z AUTO 30006KT 10SM SCT042 SCT047 06/M18 A3013 RMK A01
 
KSMX - Santa Maria, California, USA
Distance from station: S 289mi, 465km
Updated: Thu, 25-Feb-2021 7:51pm PST
Clear
Clear
 Wind from WNW
Wind: WNW 3 mph , 6 km/h
Temperature: 50°F , 10°C
Dew Point: 34°F , 1°C
Humidity: 54%
Barometer: 30.13 inHg , 1020.3 hPa
Clouds: Clear
Visibility: 10 miles , 16 km
2021/02/26 03:51 KSMX 260351Z 29003KT 10SM CLR 10/01 A3013 RMK AO2 SLP207 T01000011
K9L2 - Edwards N-Aux, California, USA
Distance from station: SSE 299mi, 482km
Updated: Thu, 25-Feb-2021 6:58pm PST
Clear
Clear
 Wind from calm
Wind: Calm
Temperature: 46°F , 8°C
Dew Point: -13°F , -25°C
Humidity: 7%
Barometer: 30.12 inHg , 1020 hPa
Clouds: Clear
Visibility: 10 miles , 16 km
2021/02/26 02:58 K9L2 260258Z AUTO 00000KT 10SM CLR 08/M25 A3012 RMK AO2 SLPNO T00761247 55005
Honor Flight NV - Honoring all of our Veterans CoCoRaHS (Community Collaborative Rain, Hail and Snow Network) Station Number: NV-DG-2 Live Lightning Map - USA Reno Skywarn Spotter ID: DO21 AlertID Southwestern Weather Network Carson Valley Community Food Closet - providing for the needs of our community



Do you have a Teacher in the family or are a teacher yourself?
Check out this new website for the Teacher Community.
(Click on the logo below)
Teacher 
		  Times Two Designs - providing  teacher tees & accessories for the teaching community

(Click on the Flag Counter logo below for details in new browser tab)
Flag Counter